sensor_id;sensor_type;location;lat;lon;timestamp;P1;durP1;ratioP1;P2;durP2;ratioP2
23175;SDS011;19910;42.652;23.332;2023-05-18T00:02:18;2.55;;;1.10;;
23175;SDS011;19910;42.652;23.332;2023-05-18T00:04:45;3.38;;;1.00;;
23175;SDS011;19910;42.652;23.332;2023-05-18T00:07:12;3.80;;;0.70;;
23175;SDS011;19910;42.652;23.332;2023-05-18T00:09:39;0.90;;;0.80;;
23175;SDS011;19910;42.652;23.332;2023-05-18T00:12:06;1.65;;;0.95;;
23175;SDS011;19910;42.652;23.332;2023-05-18T00:14:35;1.15;;;0.80;;
23175;SDS011;19910;42.652;23.332;2023-05-18T00:17:02;1.55;;;0.80;;
23175;SDS011;19910;42.652;23.332;2023-05-18T00:19:29;1.25;;;0.88;;
23175;SDS011;19910;42.652;23.332;2023-05-18T00:21:56;2.35;;;0.80;;
23175;SDS011;19910;42.652;23.332;2023-05-18T00:24:23;2.55;;;0.90;;
23175;SDS011;19910;42.652;23.332;2023-05-18T00:26:49;1.10;;;0.70;;
23175;SDS011;19910;42.652;23.332;2023-05-18T00:29:16;0.93;;;0.57;;
23175;SDS011;19910;42.652;23.332;2023-05-18T00:31:44;0.85;;;0.60;;
23175;SDS011;19910;42.652;23.332;2023-05-18T00:34:12;0.70;;;0.70;;
23175;SDS011;19910;42.652;23.332;2023-05-18T00:36:40;0.65;;;0.63;;
23175;SDS011;19910;42.652;23.332;2023-05-18T00:39:07;0.90;;;0.68;;
23175;SDS011;19910;42.652;23.332;2023-05-18T00:41:34;1.83;;;0.63;;
23175;SDS011;19910;42.652;23.332;2023-05-18T00:44:01;0.57;;;0.57;;
23175;SDS011;19910;42.652;23.332;2023-05-18T00:46:28;0.65;;;0.55;;
23175;SDS011;19910;42.652;23.332;2023-05-18T00:48:56;0.47;;;0.47;;
23175;SDS011;19910;42.652;23.332;2023-05-18T00:51:25;0.60;;;0.60;;
23175;SDS011;19910;42.652;23.332;2023-05-18T00:53:54;0.77;;;0.57;;
23175;SDS011;19910;42.652;23.332;2023-05-18T00:56:22;2.20;;;0.95;;
23175;SDS011;19910;42.652;23.332;2023-05-18T00:58:49;0.95;;;0.70;;
23175;SDS011;19910;42.652;23.332;2023-05-18T01:01:19;0.98;;;0.70;;
23175;SDS011;19910;42.652;23.332;2023-05-18T01:03:48;0.40;;;0.40;;
23175;SDS011;19910;42.652;23.332;2023-05-18T01:06:21;0.43;;;0.38;;
23175;SDS011;19910;42.652;23.332;2023-05-18T01:08:50;0.43;;;0.40;;
23175;SDS011;19910;42.652;23.332;2023-05-18T01:11:19;0.98;;;0.40;;
23175;SDS011;19910;42.652;23.332;2023-05-18T01:13:52;0.88;;;0.55;;
23175;SDS011;19910;42.652;23.332;2023-05-18T01:16:24;0.70;;;0.57;;
23175;SDS011;19910;42.652;23.332;2023-05-18T01:19:00;0.75;;;0.60;;
23175;SDS011;19910;42.652;23.332;2023-05-18T01:21:43;0.60;;;0.50;;
23175;SDS011;19910;42.652;23.332;2023-05-18T01:24:23;1.75;;;0.50;;
23175;SDS011;19910;42.652;23.332;2023-05-18T01:26:58;0.80;;;0.70;;
23175;SDS011;19910;42.652;23.332;2023-05-18T01:29:26;0.57;;;0.50;;
23175;SDS011;19910;42.652;23.332;2023-05-18T01:31:54;0.50;;;0.50;;
23175;SDS011;19910;42.652;23.332;2023-05-18T01:34:22;0.88;;;0.65;;
23175;SDS011;19910;42.652;23.332;2023-05-18T01:36:49;2.20;;;0.77;;
23175;SDS011;19910;42.652;23.332;2023-05-18T01:39:16;0.50;;;0.50;;
23175;SDS011;19910;42.652;23.332;2023-05-18T01:41:45;0.52;;;0.43;;
23175;SDS011;19910;42.652;23.332;2023-05-18T01:44:19;1.65;;;0.63;;
23175;SDS011;19910;42.652;23.332;2023-05-18T01:46:52;1.23;;;0.90;;
23175;SDS011;19910;42.652;23.332;2023-05-18T01:49:25;1.95;;;0.68;;
23175;SDS011;19910;42.652;23.332;2023-05-18T01:51:57;0.68;;;0.60;;
23175;SDS011;19910;42.652;23.332;2023-05-18T01:54:28;0.57;;;0.57;;
23175;SDS011;19910;42.652;23.332;2023-05-18T01:56:56;0.98;;;0.73;;
23175;SDS011;19910;42.652;23.332;2023-05-18T01:59:26;1.35;;;0.73;;
23175;SDS011;19910;42.652;23.332;2023-05-18T02:01:56;0.80;;;0.70;;
23175;SDS011;19910;42.652;23.332;2023-05-18T02:04:25;1.10;;;0.80;;
23175;SDS011;19910;42.652;23.332;2023-05-18T02:06:52;1.48;;;0.93;;
23175;SDS011;19910;42.652;23.332;2023-05-18T02:09:19;3.42;;;0.90;;
23175;SDS011;19910;42.652;23.332;2023-05-18T02:11:46;0.80;;;0.60;;
23175;SDS011;19910;42.652;23.332;2023-05-18T02:14:13;0.70;;;0.70;;
23175;SDS011;19910;42.652;23.332;2023-05-18T02:16:41;0.65;;;0.63;;
23175;SDS011;19910;42.652;23.332;2023-05-18T02:19:11;0.60;;;0.60;;
23175;SDS011;19910;42.652;23.332;2023-05-18T02:21:38;3.85;;;0.90;;
23175;SDS011;19910;42.652;23.332;2023-05-18T02:24:07;0.70;;;0.65;;
23175;SDS011;19910;42.652;23.332;2023-05-18T02:26:34;0.45;;;0.45;;
23175;SDS011;19910;42.652;23.332;2023-05-18T02:29:01;0.70;;;0.70;;
23175;SDS011;19910;42.652;23.332;2023-05-18T02:31:30;0.68;;;0.65;;
23175;SDS011;19910;42.652;23.332;2023-05-18T02:33:58;1.38;;;0.80;;
23175;SDS011;19910;42.652;23.332;2023-05-18T02:36:25;2.17;;;0.70;;
23175;SDS011;19910;42.652;23.332;2023-05-18T02:38:52;2.15;;;1.00;;
23175;SDS011;19910;42.652;23.332;2023-05-18T02:41:19;6.15;;;0.82;;
23175;SDS011;19910;42.652;23.332;2023-05-18T02:43:45;2.45;;;0.70;;
23175;SDS011;19910;42.652;23.332;2023-05-18T02:46:12;0.93;;;0.75;;
23175;SDS011;19910;42.652;23.332;2023-05-18T02:48:39;1.10;;;0.93;;
23175;SDS011;19910;42.652;23.332;2023-05-18T02:51:11;1.63;;;1.00;;
23175;SDS011;19910;42.652;23.332;2023-05-18T02:53:37;5.32;;;1.00;;
23175;SDS011;19910;42.652;23.332;2023-05-18T02:56:05;1.05;;;0.95;;
23175;SDS011;19910;42.652;23.332;2023-05-18T02:58:32;1.25;;;0.90;;
23175;SDS011;19910;42.652;23.332;2023-05-18T03:00:58;0.98;;;0.80;;
23175;SDS011;19910;42.652;23.332;2023-05-18T03:03:27;1.40;;;1.00;;
23175;SDS011;19910;42.652;23.332;2023-05-18T03:05:54;1.73;;;1.30;;
23175;SDS011;19910;42.652;23.332;2023-05-18T03:08:22;1.52;;;1.17;;
23175;SDS011;19910;42.652;23.332;2023-05-18T03:10:50;1.98;;;1.13;;
23175;SDS011;19910;42.652;23.332;2023-05-18T03:13:17;2.10;;;1.23;;
23175;SDS011;19910;42.652;23.332;2023-05-18T03:15:44;2.75;;;1.40;;
23175;SDS011;19910;42.652;23.332;2023-05-18T03:18:12;2.28;;;1.27;;
23175;SDS011;19910;42.652;23.332;2023-05-18T03:20:38;2.13;;;1.20;;
23175;SDS011;19910;42.652;23.332;2023-05-18T03:23:05;3.03;;;1.30;;
23175;SDS011;19910;42.652;23.332;2023-05-18T03:25:33;4.45;;;1.52;;
23175;SDS011;19910;42.652;23.332;2023-05-18T03:28:01;1.33;;;1.17;;
23175;SDS011;19910;42.652;23.332;2023-05-18T03:30:29;3.17;;;1.33;;
23175;SDS011;19910;42.652;23.332;2023-05-18T03:32:56;5.03;;;1.60;;
23175;SDS011;19910;42.652;23.332;2023-05-18T03:35:24;2.20;;;1.42;;
23175;SDS011;19910;42.652;23.332;2023-05-18T03:37:50;1.98;;;1.48;;
23175;SDS011;19910;42.652;23.332;2023-05-18T03:40:17;1.75;;;1.23;;
23175;SDS011;19910;42.652;23.332;2023-05-18T03:42:46;2.22;;;1.67;;
23175;SDS011;19910;42.652;23.332;2023-05-18T03:45:13;18.20;;;8.05;;
23175;SDS011;19910;42.652;23.332;2023-05-18T03:47:40;40.38;;;20.40;;
23175;SDS011;19910;42.652;23.332;2023-05-18T03:50:07;67.05;;;34.50;;
23175;SDS011;19910;42.652;23.332;2023-05-18T03:52:34;6.55;;;4.40;;
23175;SDS011;19910;42.652;23.332;2023-05-18T03:55:01;7.57;;;3.35;;
23175;SDS011;19910;42.652;23.332;2023-05-18T03:57:29;5.07;;;2.47;;
23175;SDS011;19910;42.652;23.332;2023-05-18T03:59:58;2.88;;;1.85;;
23175;SDS011;19910;42.652;23.332;2023-05-18T04:02:24;3.90;;;2.22;;
23175;SDS011;19910;42.652;23.332;2023-05-18T04:04:51;2.65;;;2.05;;
23175;SDS011;19910;42.652;23.332;2023-05-18T04:07:18;3.75;;;2.22;;
23175;SDS011;19910;42.652;23.332;2023-05-18T04:09:48;3.50;;;2.60;;
23175;SDS011;19910;42.652;23.332;2023-05-18T04:12:16;7.13;;;3.55;;
23175;SDS011;19910;42.652;23.332;2023-05-18T04:14:42;9.25;;;2.80;;
23175;SDS011;19910;42.652;23.332;2023-05-18T04:17:14;3.55;;;2.97;;
23175;SDS011;19910;42.652;23.332;2023-05-18T04:19:41;8.68;;;2.65;;
23175;SDS011;19910;42.652;23.332;2023-05-18T04:22:08;3.78;;;2.90;;
23175;SDS011;19910;42.652;23.332;2023-05-18T04:24:35;5.15;;;3.20;;
23175;SDS011;19910;42.652;23.332;2023-05-18T04:27:02;3.63;;;2.70;;
23175;SDS011;19910;42.652;23.332;2023-05-18T04:29:29;3.83;;;2.60;;
23175;SDS011;19910;42.652;23.332;2023-05-18T04:31:56;3.55;;;2.80;;
23175;SDS011;19910;42.652;23.332;2023-05-18T04:34:26;4.13;;;2.35;;
23175;SDS011;19910;42.652;23.332;2023-05-18T04:36:53;4.47;;;2.58;;
23175;SDS011;19910;42.652;23.332;2023-05-18T04:39:22;3.53;;;2.60;;
23175;SDS011;19910;42.652;23.332;2023-05-18T04:41:50;4.35;;;2.97;;
23175;SDS011;19910;42.652;23.332;2023-05-18T04:44:22;5.03;;;2.78;;
23175;SDS011;19910;42.652;23.332;2023-05-18T04:46:49;6.38;;;2.92;;
23175;SDS011;19910;42.652;23.332;2023-05-18T04:49:16;3.95;;;2.70;;
23175;SDS011;19910;42.652;23.332;2023-05-18T04:51:47;3.47;;;2.92;;
23175;SDS011;19910;42.652;23.332;2023-05-18T04:54:19;3.33;;;2.90;;
23175;SDS011;19910;42.652;23.332;2023-05-18T04:56:47;3.05;;;2.58;;
23175;SDS011;19910;42.652;23.332;2023-05-18T04:59:14;3.28;;;2.97;;
23175;SDS011;19910;42.652;23.332;2023-05-18T05:01:41;3.88;;;2.83;;
23175;SDS011;19910;42.652;23.332;2023-05-18T05:04:07;5.43;;;2.88;;
23175;SDS011;19910;42.652;23.332;2023-05-18T05:06:34;4.25;;;3.42;;
23175;SDS011;19910;42.652;23.332;2023-05-18T05:09:02;3.88;;;3.10;;
23175;SDS011;19910;42.652;23.332;2023-05-18T05:11:29;3.30;;;3.00;;
23175;SDS011;19910;42.652;23.332;2023-05-18T05:13:56;4.28;;;3.13;;
23175;SDS011;19910;42.652;23.332;2023-05-18T05:16:23;7.95;;;2.80;;
23175;SDS011;19910;42.652;23.332;2023-05-18T05:18:49;4.13;;;3.10;;
23175;SDS011;19910;42.652;23.332;2023-05-18T05:21:16;3.85;;;2.90;;
23175;SDS011;19910;42.652;23.332;2023-05-18T05:23:43;4.38;;;3.25;;
23175;SDS011;19910;42.652;23.332;2023-05-18T05:26:11;4.38;;;3.38;;
23175;SDS011;19910;42.652;23.332;2023-05-18T05:28:38;5.45;;;3.25;;
23175;SDS011;19910;42.652;23.332;2023-05-18T05:31:05;4.13;;;2.92;;
23175;SDS011;19910;42.652;23.332;2023-05-18T05:33:32;6.28;;;3.42;;
23175;SDS011;19910;42.652;23.332;2023-05-18T05:35:58;5.97;;;3.50;;
23175;SDS011;19910;42.652;23.332;2023-05-18T05:38:25;4.28;;;3.33;;
23175;SDS011;19910;42.652;23.332;2023-05-18T05:40:52;7.78;;;3.58;;
23175;SDS011;19910;42.652;23.332;2023-05-18T05:43:20;5.90;;;3.28;;
23175;SDS011;19910;42.652;23.332;2023-05-18T05:45:47;5.03;;;3.65;;
23175;SDS011;19910;42.652;23.332;2023-05-18T05:48:14;7.78;;;3.25;;
23175;SDS011;19910;42.652;23.332;2023-05-18T05:50:40;6.00;;;3.42;;
23175;SDS011;19910;42.652;23.332;2023-05-18T05:53:07;5.43;;;3.92;;
23175;SDS011;19910;42.652;23.332;2023-05-18T05:55:34;5.20;;;3.28;;
23175;SDS011;19910;42.652;23.332;2023-05-18T05:58:05;7.35;;;3.80;;
23175;SDS011;19910;42.652;23.332;2023-05-18T06:00:33;4.30;;;3.28;;
23175;SDS011;19910;42.652;23.332;2023-05-18T06:03:00;4.90;;;3.75;;
23175;SDS011;19910;42.652;23.332;2023-05-18T06:05:27;5.03;;;3.58;;
23175;SDS011;19910;42.652;23.332;2023-05-18T06:07:54;5.60;;;5.10;;
23175;SDS011;19910;42.652;23.332;2023-05-18T06:10:21;5.07;;;3.60;;
23175;SDS011;19910;42.652;23.332;2023-05-18T06:12:48;5.85;;;4.00;;
23175;SDS011;19910;42.652;23.332;2023-05-18T06:15:15;5.40;;;3.83;;
23175;SDS011;19910;42.652;23.332;2023-05-18T06:17:43;5.32;;;3.95;;
23175;SDS011;19910;42.652;23.332;2023-05-18T06:20:10;7.32;;;4.18;;
23175;SDS011;19910;42.652;23.332;2023-05-18T06:22:37;6.82;;;4.50;;
23175;SDS011;19910;42.652;23.332;2023-05-18T06:25:04;6.95;;;4.45;;
23175;SDS011;19910;42.652;23.332;2023-05-18T06:27:32;7.03;;;4.32;;
23175;SDS011;19910;42.652;23.332;2023-05-18T06:29:59;5.80;;;3.92;;
23175;SDS011;19910;42.652;23.332;2023-05-18T06:32:25;6.40;;;4.25;;
23175;SDS011;19910;42.652;23.332;2023-05-18T06:34:54;5.55;;;3.88;;
23175;SDS011;19910;42.652;23.332;2023-05-18T06:37:20;5.68;;;3.85;;
23175;SDS011;19910;42.652;23.332;2023-05-18T06:39:47;5.30;;;4.80;;
23175;SDS011;19910;42.652;23.332;2023-05-18T06:42:14;5.53;;;4.28;;
23175;SDS011;19910;42.652;23.332;2023-05-18T06:44:41;5.80;;;4.47;;
23175;SDS011;19910;42.652;23.332;2023-05-18T06:47:09;7.38;;;5.47;;
23175;SDS011;19910;42.652;23.332;2023-05-18T06:49:35;6.93;;;4.55;;
23175;SDS011;19910;42.652;23.332;2023-05-18T06:52:04;6.25;;;4.43;;
23175;SDS011;19910;42.652;23.332;2023-05-18T06:54:31;5.15;;;3.88;;
23175;SDS011;19910;42.652;23.332;2023-05-18T06:56:58;6.30;;;4.22;;
23175;SDS011;19910;42.652;23.332;2023-05-18T06:59:25;6.03;;;3.85;;
23175;SDS011;19910;42.652;23.332;2023-05-18T07:01:52;5.07;;;3.47;;
23175;SDS011;19910;42.652;23.332;2023-05-18T07:04:18;6.05;;;4.38;;
23175;SDS011;19910;42.652;23.332;2023-05-18T07:06:45;4.50;;;3.38;;
23175;SDS011;19910;42.652;23.332;2023-05-18T07:09:13;4.75;;;2.92;;
23175;SDS011;19910;42.652;23.332;2023-05-18T07:11:41;8.27;;;3.72;;
23175;SDS011;19910;42.652;23.332;2023-05-18T07:14:09;5.18;;;3.40;;
23175;SDS011;19910;42.652;23.332;2023-05-18T07:16:36;5.85;;;3.80;;
23175;SDS011;19910;42.652;23.332;2023-05-18T07:19:03;5.95;;;3.72;;
23175;SDS011;19910;42.652;23.332;2023-05-18T07:21:30;6.70;;;4.10;;
23175;SDS011;19910;42.652;23.332;2023-05-18T07:23:58;11.38;;;4.13;;
23175;SDS011;19910;42.652;23.332;2023-05-18T07:26:26;6.68;;;4.50;;
23175;SDS011;19910;42.652;23.332;2023-05-18T07:28:53;5.88;;;4.32;;
23175;SDS011;19910;42.652;23.332;2023-05-18T07:31:20;10.88;;;4.93;;
23175;SDS011;19910;42.652;23.332;2023-05-18T07:33:47;11.95;;;5.32;;
23175;SDS011;19910;42.652;23.332;2023-05-18T07:36:14;8.68;;;4.63;;
23175;SDS011;19910;42.652;23.332;2023-05-18T07:38:41;9.50;;;4.68;;
23175;SDS011;19910;42.652;23.332;2023-05-18T07:41:08;14.60;;;4.90;;
23175;SDS011;19910;42.652;23.332;2023-05-18T07:43:36;8.52;;;5.70;;
23175;SDS011;19910;42.652;23.332;2023-05-18T07:46:03;9.07;;;5.78;;
23175;SDS011;19910;42.652;23.332;2023-05-18T07:48:29;8.45;;;6.03;;
23175;SDS011;19910;42.652;23.332;2023-05-18T07:50:56;12.75;;;5.90;;
23175;SDS011;19910;42.652;23.332;2023-05-18T07:53:23;13.18;;;6.40;;
23175;SDS011;19910;42.652;23.332;2023-05-18T07:55:50;9.05;;;6.20;;
23175;SDS011;19910;42.652;23.332;2023-05-18T07:58:17;10.98;;;6.38;;
23175;SDS011;19910;42.652;23.332;2023-05-18T08:00:45;9.90;;;6.47;;
23175;SDS011;19910;42.652;23.332;2023-05-18T08:03:12;11.80;;;8.77;;
23175;SDS011;19910;42.652;23.332;2023-05-18T08:05:38;11.00;;;6.45;;
23175;SDS011;19910;42.652;23.332;2023-05-18T08:08:06;13.43;;;6.60;;
23175;SDS011;19910;42.652;23.332;2023-05-18T08:10:36;11.38;;;7.22;;
23175;SDS011;19910;42.652;23.332;2023-05-18T08:13:02;9.15;;;6.88;;
23175;SDS011;19910;42.652;23.332;2023-05-18T08:15:29;10.93;;;6.80;;
23175;SDS011;19910;42.652;23.332;2023-05-18T08:17:57;11.95;;;7.57;;
23175;SDS011;19910;42.652;23.332;2023-05-18T08:20:24;11.40;;;8.43;;
23175;SDS011;19910;42.652;23.332;2023-05-18T08:22:54;9.25;;;6.90;;
23175;SDS011;19910;42.652;23.332;2023-05-18T08:25:21;10.07;;;7.28;;
23175;SDS011;19910;42.652;23.332;2023-05-18T08:27:47;12.30;;;6.93;;
23175;SDS011;19910;42.652;23.332;2023-05-18T08:30:14;12.27;;;7.35;;
23175;SDS011;19910;42.652;23.332;2023-05-18T08:32:45;10.45;;;6.82;;
23175;SDS011;19910;42.652;23.332;2023-05-18T08:35:13;12.45;;;6.53;;
23175;SDS011;19910;42.652;23.332;2023-05-18T08:37:40;10.77;;;7.10;;
23175;SDS011;19910;42.652;23.332;2023-05-18T08:40:07;9.48;;;7.25;;
23175;SDS011;19910;42.652;23.332;2023-05-18T08:42:37;12.32;;;7.32;;
23175;SDS011;19910;42.652;23.332;2023-05-18T08:45:10;11.38;;;6.68;;
23175;SDS011;19910;42.652;23.332;2023-05-18T08:47:39;13.15;;;7.03;;
23175;SDS011;19910;42.652;23.332;2023-05-18T08:50:06;9.18;;;6.25;;
23175;SDS011;19910;42.652;23.332;2023-05-18T08:52:40;15.70;;;6.88;;
23175;SDS011;19910;42.652;23.332;2023-05-18T08:55:12;13.75;;;8.07;;
23175;SDS011;19910;42.652;23.332;2023-05-18T08:57:41;9.27;;;6.53;;
23175;SDS011;19910;42.652;23.332;2023-05-18T09:00:14;11.43;;;7.10;;
23175;SDS011;19910;42.652;23.332;2023-05-18T09:02:42;10.73;;;6.32;;
23175;SDS011;19910;42.652;23.332;2023-05-18T09:05:09;9.57;;;6.15;;
23175;SDS011;19910;42.652;23.332;2023-05-18T09:07:39;9.07;;;5.90;;
23175;SDS011;19910;42.652;23.332;2023-05-18T09:10:09;10.00;;;6.90;;
23175;SDS011;19910;42.652;23.332;2023-05-18T09:12:36;11.20;;;6.68;;
23175;SDS011;19910;42.652;23.332;2023-05-18T09:15:05;10.68;;;7.00;;
23175;SDS011;19910;42.652;23.332;2023-05-18T09:17:33;8.30;;;6.50;;
23175;SDS011;19910;42.652;23.332;2023-05-18T09:20:00;13.77;;;7.80;;
23175;SDS011;19910;42.652;23.332;2023-05-18T09:22:29;11.07;;;7.13;;
23175;SDS011;19910;42.652;23.332;2023-05-18T09:24:58;16.05;;;7.32;;
23175;SDS011;19910;42.652;23.332;2023-05-18T09:27:24;10.50;;;7.03;;
23175;SDS011;19910;42.652;23.332;2023-05-18T09:29:55;10.60;;;6.95;;
23175;SDS011;19910;42.652;23.332;2023-05-18T09:32:24;12.38;;;7.10;;
23175;SDS011;19910;42.652;23.332;2023-05-18T09:34:51;16.77;;;7.53;;
23175;SDS011;19910;42.652;23.332;2023-05-18T09:37:19;16.58;;;6.55;;
23175;SDS011;19910;42.652;23.332;2023-05-18T09:39:57;10.77;;;6.35;;
23175;SDS011;19910;42.652;23.332;2023-05-18T09:42:26;9.18;;;6.00;;
23175;SDS011;19910;42.652;23.332;2023-05-18T09:44:53;19.38;;;11.38;;
23175;SDS011;19910;42.652;23.332;2023-05-18T09:47:20;14.20;;;8.35;;
23175;SDS011;19910;42.652;23.332;2023-05-18T09:49:47;12.70;;;7.07;;
23175;SDS011;19910;42.652;23.332;2023-05-18T09:52:13;8.88;;;6.10;;
23175;SDS011;19910;42.652;23.332;2023-05-18T09:54:40;11.38;;;6.78;;
23175;SDS011;19910;42.652;23.332;2023-05-18T09:57:08;7.82;;;5.63;;
23175;SDS011;19910;42.652;23.332;2023-05-18T09:59:35;11.77;;;6.28;;
23175;SDS011;19910;42.652;23.332;2023-05-18T10:02:03;7.30;;;5.57;;
23175;SDS011;19910;42.652;23.332;2023-05-18T10:04:36;9.23;;;5.55;;
23175;SDS011;19910;42.652;23.332;2023-05-18T10:07:09;8.77;;;6.25;;
23175;SDS011;19910;42.652;23.332;2023-05-18T10:09:38;10.63;;;5.00;;
23175;SDS011;19910;42.652;23.332;2023-05-18T10:12:10;7.60;;;5.07;;
23175;SDS011;19910;42.652;23.332;2023-05-18T10:14:38;9.52;;;5.63;;
23175;SDS011;19910;42.652;23.332;2023-05-18T10:17:06;8.40;;;5.65;;
23175;SDS011;19910;42.652;23.332;2023-05-18T10:19:33;8.98;;;5.38;;
23175;SDS011;19910;42.652;23.332;2023-05-18T10:22:01;8.77;;;5.68;;
23175;SDS011;19910;42.652;23.332;2023-05-18T10:24:28;8.00;;;5.13;;
23175;SDS011;19910;42.652;23.332;2023-05-18T10:27:00;7.70;;;5.30;;
23175;SDS011;19910;42.652;23.332;2023-05-18T10:29:32;9.52;;;5.55;;
23175;SDS011;19910;42.652;23.332;2023-05-18T10:32:00;11.50;;;5.57;;
23175;SDS011;19910;42.652;23.332;2023-05-18T10:34:29;8.05;;;5.57;;
23175;SDS011;19910;42.652;23.332;2023-05-18T10:36:56;8.15;;;5.15;;
23175;SDS011;19910;42.652;23.332;2023-05-18T10:39:28;11.70;;;6.05;;
23175;SDS011;19910;42.652;23.332;2023-05-18T10:41:56;7.65;;;5.40;;
23175;SDS011;19910;42.652;23.332;2023-05-18T10:44:25;8.77;;;5.50;;
23175;SDS011;19910;42.652;23.332;2023-05-18T10:46:54;9.05;;;5.88;;
23175;SDS011;19910;42.652;23.332;2023-05-18T10:49:20;14.23;;;7.47;;
23175;SDS011;19910;42.652;23.332;2023-05-18T10:51:50;12.02;;;5.95;;
23175;SDS011;19910;42.652;23.332;2023-05-18T10:54:18;12.43;;;5.85;;
23175;SDS011;19910;42.652;23.332;2023-05-18T10:56:47;8.70;;;5.65;;
23175;SDS011;19910;42.652;23.332;2023-05-18T10:59:17;10.10;;;5.68;;
23175;SDS011;19910;42.652;23.332;2023-05-18T11:01:47;15.40;;;7.10;;
23175;SDS011;19910;42.652;23.332;2023-05-18T11:04:17;13.65;;;6.65;;
23175;SDS011;19910;42.652;23.332;2023-05-18T11:06:52;9.85;;;6.15;;
23175;SDS011;19910;42.652;23.332;2023-05-18T11:09:21;14.05;;;5.43;;
23175;SDS011;19910;42.652;23.332;2023-05-18T11:11:49;9.07;;;6.68;;
23175;SDS011;19910;42.652;23.332;2023-05-18T11:14:23;11.90;;;7.82;;
23175;SDS011;19910;42.652;23.332;2023-05-18T11:16:51;11.02;;;7.03;;
23175;SDS011;19910;42.652;23.332;2023-05-18T11:19:20;9.13;;;6.43;;
23175;SDS011;19910;42.652;23.332;2023-05-18T11:21:52;11.90;;;7.95;;
23175;SDS011;19910;42.652;23.332;2023-05-18T11:27:06;8.82;;;3.97;;
23175;SDS011;19910;42.652;23.332;2023-05-18T11:29:39;3.60;;;2.50;;
23175;SDS011;19910;42.652;23.332;2023-05-18T11:32:20;6.80;;;4.15;;
23175;SDS011;19910;42.652;23.332;2023-05-18T11:34:50;10.18;;;4.47;;
23175;SDS011;19910;42.652;23.332;2023-05-18T11:43:20;4.40;;;3.60;;
23175;SDS011;19910;42.652;23.332;2023-05-18T11:45:53;14.90;;;7.05;;
23175;SDS011;19910;42.652;23.332;2023-05-18T11:48:21;7.05;;;4.75;;
23175;SDS011;19910;42.652;23.332;2023-05-18T11:50:49;4.85;;;3.55;;
23175;SDS011;19910;42.652;23.332;2023-05-18T11:53:19;8.48;;;5.50;;
23175;SDS011;19910;42.652;23.332;2023-05-18T11:55:48;12.88;;;7.60;;
23175;SDS011;19910;42.652;23.332;2023-05-18T11:58:17;8.07;;;4.75;;
23175;SDS011;19910;42.652;23.332;2023-05-18T12:00:44;5.55;;;3.30;;
23175;SDS011;19910;42.652;23.332;2023-05-18T12:03:12;4.57;;;2.83;;
23175;SDS011;19910;42.652;23.332;2023-05-18T12:05:40;3.67;;;2.65;;
23175;SDS011;19910;42.652;23.332;2023-05-18T12:08:15;4.68;;;2.60;;
23175;SDS011;19910;42.652;23.332;2023-05-18T12:10:43;7.13;;;2.88;;
23175;SDS011;19910;42.652;23.332;2023-05-18T12:13:11;4.63;;;2.97;;
23175;SDS011;19910;42.652;23.332;2023-05-18T12:15:38;3.70;;;2.05;;
23175;SDS011;19910;42.652;23.332;2023-05-18T12:18:05;4.57;;;3.50;;
23175;SDS011;19910;42.652;23.332;2023-05-18T12:20:32;7.63;;;3.90;;
23175;SDS011;19910;42.652;23.332;2023-05-18T12:22:59;4.75;;;3.33;;
23175;SDS011;19910;42.652;23.332;2023-05-18T12:25:28;4.85;;;3.20;;
23175;SDS011;19910;42.652;23.332;2023-05-18T12:27:55;5.55;;;3.70;;
23175;SDS011;19910;42.652;23.332;2023-05-18T12:30:23;6.63;;;4.10;;
23175;SDS011;19910;42.652;23.332;2023-05-18T12:32:58;10.05;;;3.50;;
23175;SDS011;19910;42.652;23.332;2023-05-18T12:35:26;7.18;;;3.45;;
23175;SDS011;19910;42.652;23.332;2023-05-18T12:37:55;8.15;;;3.80;;
23175;SDS011;19910;42.652;23.332;2023-05-18T12:40:24;5.28;;;3.47;;
23175;SDS011;19910;42.652;23.332;2023-05-18T12:42:53;5.22;;;3.17;;
23175;SDS011;19910;42.652;23.332;2023-05-18T12:45:21;4.18;;;3.45;;
23175;SDS011;19910;42.652;23.332;2023-05-18T12:47:50;3.92;;;2.70;;
23175;SDS011;19910;42.652;23.332;2023-05-18T12:50:18;4.90;;;3.40;;
23175;SDS011;19910;42.652;23.332;2023-05-18T12:52:46;8.95;;;4.60;;
23175;SDS011;19910;42.652;23.332;2023-05-18T12:55:14;7.97;;;4.18;;
23175;SDS011;19910;42.652;23.332;2023-05-18T12:57:45;11.75;;;4.03;;
23175;SDS011;19910;42.652;23.332;2023-05-18T13:00:25;8.52;;;4.50;;
23175;SDS011;19910;42.652;23.332;2023-05-18T13:02:52;4.97;;;3.95;;
23175;SDS011;19910;42.652;23.332;2023-05-18T13:05:22;7.53;;;3.45;;
23175;SDS011;19910;42.652;23.332;2023-05-18T13:07:49;4.55;;;3.35;;
23175;SDS011;19910;42.652;23.332;2023-05-18T13:10:17;6.22;;;3.30;;
23175;SDS011;19910;42.652;23.332;2023-05-18T13:12:44;5.72;;;3.25;;
23175;SDS011;19910;42.652;23.332;2023-05-18T13:15:14;5.43;;;3.50;;
23175;SDS011;19910;42.652;23.332;2023-05-18T13:17:55;4.57;;;3.38;;
23175;SDS011;19910;42.652;23.332;2023-05-18T13:20:23;5.93;;;3.65;;
23175;SDS011;19910;42.652;23.332;2023-05-18T13:22:55;4.70;;;3.33;;
23175;SDS011;19910;42.652;23.332;2023-05-18T13:25:23;5.97;;;3.17;;
23175;SDS011;19910;42.652;23.332;2023-05-18T13:27:50;7.97;;;4.28;;
23175;SDS011;19910;42.652;23.332;2023-05-18T13:30:20;8.02;;;4.28;;
23175;SDS011;19910;42.652;23.332;2023-05-18T13:32:47;9.60;;;4.05;;
23175;SDS011;19910;42.652;23.332;2023-05-18T13:35:15;8.30;;;4.30;;
23175;SDS011;19910;42.652;23.332;2023-05-18T13:37:42;5.60;;;4.50;;
23175;SDS011;19910;42.652;23.332;2023-05-18T13:40:11;6.18;;;3.95;;
23175;SDS011;19910;42.652;23.332;2023-05-18T13:42:38;5.43;;;3.55;;
23175;SDS011;19910;42.652;23.332;2023-05-18T13:45:06;6.63;;;4.18;;
23175;SDS011;19910;42.652;23.332;2023-05-18T13:47:35;5.53;;;3.92;;
23175;SDS011;19910;42.652;23.332;2023-05-18T13:50:01;7.88;;;3.75;;
23175;SDS011;19910;42.652;23.332;2023-05-18T13:52:29;8.43;;;4.43;;
23175;SDS011;19910;42.652;23.332;2023-05-18T13:54:55;7.30;;;4.28;;
23175;SDS011;19910;42.652;23.332;2023-05-18T13:57:22;5.63;;;3.60;;
23175;SDS011;19910;42.652;23.332;2023-05-18T13:59:50;9.13;;;3.63;;
23175;SDS011;19910;42.652;23.332;2023-05-18T14:02:17;5.45;;;3.97;;
23175;SDS011;19910;42.652;23.332;2023-05-18T14:04:45;6.95;;;4.55;;
23175;SDS011;19910;42.652;23.332;2023-05-18T14:07:12;7.45;;;4.20;;
23175;SDS011;19910;42.652;23.332;2023-05-18T14:09:38;5.57;;;3.90;;
23175;SDS011;19910;42.652;23.332;2023-05-18T14:12:05;4.45;;;2.80;;
23175;SDS011;19910;42.652;23.332;2023-05-18T14:14:34;7.25;;;3.08;;
23175;SDS011;19910;42.652;23.332;2023-05-18T14:17:01;5.88;;;4.00;;
23175;SDS011;19910;42.652;23.332;2023-05-18T14:19:28;5.00;;;3.35;;
23175;SDS011;19910;42.652;23.332;2023-05-18T14:21:56;10.25;;;3.78;;
23175;SDS011;19910;42.652;23.332;2023-05-18T14:29:33;7.68;;;3.88;;
23175;SDS011;19910;42.652;23.332;2023-05-18T14:32:01;10.50;;;5.20;;
23175;SDS011;19910;42.652;23.332;2023-05-18T14:34:28;7.03;;;3.97;;
23175;SDS011;19910;42.652;23.332;2023-05-18T14:36:54;7.63;;;4.15;;
23175;SDS011;19910;42.652;23.332;2023-05-18T14:39:22;13.30;;;5.57;;
23175;SDS011;19910;42.652;23.332;2023-05-18T14:41:49;9.13;;;4.13;;
23175;SDS011;19910;42.652;23.332;2023-05-18T14:44:16;4.88;;;3.35;;
23175;SDS011;19910;42.652;23.332;2023-05-18T14:46:43;5.95;;;3.90;;
23175;SDS011;19910;42.652;23.332;2023-05-18T14:49:09;7.43;;;4.13;;
23175;SDS011;19910;42.652;23.332;2023-05-18T14:51:37;4.13;;;3.25;;